sensor_id;sensor_type;location;lat;lon;timestamp;P1;durP1;ratioP1;P2;durP2;ratioP2
75413;SDS011;64758;52.122;5.404;2022-12-29T00:01:41;1.60;;;1.30;;
75413;SDS011;64758;52.122;5.404;2022-12-29T00:04:09;2.25;;;1.30;;
75413;SDS011;64758;52.122;5.404;2022-12-29T00:06:41;1.77;;;1.02;;
75413;SDS011;64758;52.122;5.404;2022-12-29T00:09:10;2.93;;;1.10;;
75413;SDS011;64758;52.122;5.404;2022-12-29T00:11:37;1.88;;;0.82;;
75413;SDS011;64758;52.122;5.404;2022-12-29T00:14:04;1.90;;;0.90;;
75413;SDS011;64758;52.122;5.404;2022-12-29T00:16:51;4.75;;;1.00;;
75413;SDS011;64758;52.122;5.404;2022-12-29T00:19:18;1.38;;;0.80;;
75413;SDS011;64758;52.122;5.404;2022-12-29T00:22:03;1.20;;;0.80;;
75413;SDS011;64758;52.122;5.404;2022-12-29T00:24:49;1.40;;;0.90;;
75413;SDS011;64758;52.122;5.404;2022-12-29T00:27:28;1.40;;;0.98;;
75413;SDS011;64758;52.122;5.404;2022-12-29T00:30:17;1.10;;;0.70;;
75413;SDS011;64758;52.122;5.404;2022-12-29T00:35:59;2.57;;;1.30;;
75413;SDS011;64758;52.122;5.404;2022-12-29T00:38:29;1.85;;;0.85;;
75413;SDS011;64758;52.122;5.404;2022-12-29T00:41:17;1.67;;;0.88;;
75413;SDS011;64758;52.122;5.404;2022-12-29T00:44:01;1.77;;;0.85;;
75413;SDS011;64758;52.122;5.404;2022-12-29T00:46:34;2.35;;;0.98;;
75413;SDS011;64758;52.122;5.404;2022-12-29T00:49:05;3.40;;;0.60;;
75413;SDS011;64758;52.122;5.404;2022-12-29T00:51:51;1.70;;;0.60;;
75413;SDS011;64758;52.122;5.404;2022-12-29T00:54:19;1.88;;;0.70;;
75413;SDS011;64758;52.122;5.404;2022-12-29T00:56:49;1.70;;;0.68;;
75413;SDS011;64758;52.122;5.404;2022-12-29T00:59:17;1.48;;;0.73;;
75413;SDS011;64758;52.122;5.404;2022-12-29T01:01:45;1.83;;;0.90;;
75413;SDS011;64758;52.122;5.404;2022-12-29T01:04:12;1.67;;;0.68;;
75413;SDS011;64758;52.122;5.404;2022-12-29T01:06:40;1.98;;;0.85;;
75413;SDS011;64758;52.122;5.404;2022-12-29T01:09:07;1.42;;;0.70;;
75413;SDS011;64758;52.122;5.404;2022-12-29T01:11:53;2.72;;;0.70;;
75413;SDS011;64758;52.122;5.404;2022-12-29T01:14:20;1.13;;;0.53;;
75413;SDS011;64758;52.122;5.404;2022-12-29T01:16:47;1.73;;;0.88;;
75413;SDS011;64758;52.122;5.404;2022-12-29T01:19:14;1.17;;;0.52;;
75413;SDS011;64758;52.122;5.404;2022-12-29T01:21:43;1.58;;;0.60;;
75413;SDS011;64758;52.122;5.404;2022-12-29T01:24:10;1.20;;;0.60;;
75413;SDS011;64758;52.122;5.404;2022-12-29T01:26:37;3.20;;;0.70;;
75413;SDS011;64758;52.122;5.404;2022-12-29T01:29:03;1.05;;;0.60;;
75413;SDS011;64758;52.122;5.404;2022-12-29T01:31:30;1.05;;;0.65;;
75413;SDS011;64758;52.122;5.404;2022-12-29T01:33:56;0.77;;;0.50;;
75413;SDS011;64758;52.122;5.404;2022-12-29T01:36:23;1.60;;;0.60;;
75413;SDS011;64758;52.122;5.404;2022-12-29T01:38:50;1.90;;;0.77;;
75413;SDS011;64758;52.122;5.404;2022-12-29T01:41:17;1.02;;;0.45;;
75413;SDS011;64758;52.122;5.404;2022-12-29T01:46:14;1.65;;;0.50;;
75413;SDS011;64758;52.122;5.404;2022-12-29T01:49:12;1.63;;;0.50;;
75413;SDS011;64758;52.122;5.404;2022-12-29T01:54:26;2.35;;;0.60;;
75413;SDS011;64758;52.122;5.404;2022-12-29T01:56:59;2.35;;;0.60;;
75413;SDS011;64758;52.122;5.404;2022-12-29T01:59:31;1.60;;;0.75;;
75413;SDS011;64758;52.122;5.404;2022-12-29T02:02:00;1.33;;;0.60;;
75413;SDS011;64758;52.122;5.404;2022-12-29T02:04:28;2.30;;;0.90;;
75413;SDS011;64758;52.122;5.404;2022-12-29T02:07:01;1.92;;;0.80;;
75413;SDS011;64758;52.122;5.404;2022-12-29T02:09:30;1.63;;;0.90;;
75413;SDS011;64758;52.122;5.404;2022-12-29T02:11:57;1.70;;;0.60;;
75413;SDS011;64758;52.122;5.404;2022-12-29T02:14:25;1.70;;;0.60;;
75413;SDS011;64758;52.122;5.404;2022-12-29T02:17:02;2.20;;;0.50;;
75413;SDS011;64758;52.122;5.404;2022-12-29T02:22:15;1.27;;;0.63;;
75413;SDS011;64758;52.122;5.404;2022-12-29T02:30:54;4.00;;;0.60;;
75413;SDS011;64758;52.122;5.404;2022-12-29T02:36:24;4.03;;;0.50;;
75413;SDS011;64758;52.122;5.404;2022-12-29T02:44:36;1.97;;;0.43;;
75413;SDS011;64758;52.122;5.404;2022-12-29T02:47:18;3.88;;;1.00;;
75413;SDS011;64758;52.122;5.404;2022-12-29T02:50:00;0.90;;;0.43;;
75413;SDS011;64758;52.122;5.404;2022-12-29T02:52:54;1.83;;;0.38;;
75413;SDS011;64758;52.122;5.404;2022-12-29T02:55:23;2.05;;;0.75;;
75413;SDS011;64758;52.122;5.404;2022-12-29T02:58:04;1.57;;;0.40;;
75413;SDS011;64758;52.122;5.404;2022-12-29T03:00:46;1.05;;;0.20;;
75413;SDS011;64758;52.122;5.404;2022-12-29T03:03:37;1.20;;;0.30;;
75413;SDS011;64758;52.122;5.404;2022-12-29T03:09:17;2.92;;;0.32;;
75413;SDS011;64758;52.122;5.404;2022-12-29T03:11:52;0.70;;;0.20;;
75413;SDS011;64758;52.122;5.404;2022-12-29T03:17:36;0.70;;;0.30;;
75413;SDS011;64758;52.122;5.404;2022-12-29T03:20:10;1.20;;;0.40;;
75413;SDS011;64758;52.122;5.404;2022-12-29T03:22:44;1.02;;;0.30;;
75413;SDS011;64758;52.122;5.404;2022-12-29T03:25:19;1.37;;;0.30;;
75413;SDS011;64758;52.122;5.404;2022-12-29T03:30:54;1.70;;;0.40;;
75413;SDS011;64758;52.122;5.404;2022-12-29T03:33:23;1.65;;;0.40;;
75413;SDS011;64758;52.122;5.404;2022-12-29T03:35:54;2.05;;;0.52;;
75413;SDS011;64758;52.122;5.404;2022-12-29T03:41:07;1.90;;;0.40;;
75413;SDS011;64758;52.122;5.404;2022-12-29T03:43:37;1.05;;;0.40;;
75413;SDS011;64758;52.122;5.404;2022-12-29T03:46:04;0.95;;;0.30;;
75413;SDS011;64758;52.122;5.404;2022-12-29T03:48:30;2.08;;;0.40;;
75413;SDS011;64758;52.122;5.404;2022-12-29T03:50:59;1.30;;;0.30;;
75413;SDS011;64758;52.122;5.404;2022-12-29T03:53:26;2.65;;;0.52;;
75413;SDS011;64758;52.122;5.404;2022-12-29T03:55:52;1.83;;;0.43;;
75413;SDS011;64758;52.122;5.404;2022-12-29T03:58:19;1.48;;;0.35;;
75413;SDS011;64758;52.122;5.404;2022-12-29T04:00:45;1.80;;;0.50;;
75413;SDS011;64758;52.122;5.404;2022-12-29T04:03:12;2.30;;;0.40;;
75413;SDS011;64758;52.122;5.404;2022-12-29T04:05:38;0.90;;;0.50;;
75413;SDS011;64758;52.122;5.404;2022-12-29T04:08:05;4.43;;;0.50;;
75413;SDS011;64758;52.122;5.404;2022-12-29T04:10:31;3.78;;;0.55;;
75413;SDS011;64758;52.122;5.404;2022-12-29T04:12:59;1.63;;;0.60;;
75413;SDS011;64758;52.122;5.404;2022-12-29T04:15:25;2.20;;;0.50;;
75413;SDS011;64758;52.122;5.404;2022-12-29T04:17:52;2.92;;;0.52;;
75413;SDS011;64758;52.122;5.404;2022-12-29T04:20:19;1.98;;;0.57;;
75413;SDS011;64758;52.122;5.404;2022-12-29T04:23:04;0.90;;;0.30;;
75413;SDS011;64758;52.122;5.404;2022-12-29T04:25:31;1.77;;;0.30;;
75413;SDS011;64758;52.122;5.404;2022-12-29T04:27:59;2.37;;;0.50;;
75413;SDS011;64758;52.122;5.404;2022-12-29T04:30:26;1.35;;;0.30;;
75413;SDS011;64758;52.122;5.404;2022-12-29T04:32:53;1.80;;;0.30;;
75413;SDS011;64758;52.122;5.404;2022-12-29T04:35:19;3.25;;;0.50;;
75413;SDS011;64758;52.122;5.404;2022-12-29T04:37:46;2.28;;;0.38;;
75413;SDS011;64758;52.122;5.404;2022-12-29T04:40:12;3.53;;;0.30;;
75413;SDS011;64758;52.122;5.404;2022-12-29T04:42:39;1.80;;;0.40;;
75413;SDS011;64758;52.122;5.404;2022-12-29T04:45:05;3.33;;;0.68;;
75413;SDS011;64758;52.122;5.404;2022-12-29T04:47:32;7.00;;;0.47;;
75413;SDS011;64758;52.122;5.404;2022-12-29T04:49:59;4.10;;;0.40;;
75413;SDS011;64758;52.122;5.404;2022-12-29T04:52:26;5.17;;;0.30;;
75413;SDS011;64758;52.122;5.404;2022-12-29T04:54:52;4.97;;;0.57;;
75413;SDS011;64758;52.122;5.404;2022-12-29T04:57:19;2.85;;;0.30;;
75413;SDS011;64758;52.122;5.404;2022-12-29T04:59:45;5.78;;;0.43;;
75413;SDS011;64758;52.122;5.404;2022-12-29T05:02:12;9.88;;;0.70;;
75413;SDS011;64758;52.122;5.404;2022-12-29T05:04:39;4.17;;;0.43;;
75413;SDS011;64758;52.122;5.404;2022-12-29T05:07:06;6.63;;;0.50;;
75413;SDS011;64758;52.122;5.404;2022-12-29T05:09:32;4.15;;;0.50;;
75413;SDS011;64758;52.122;5.404;2022-12-29T05:11:59;6.07;;;0.60;;
75413;SDS011;64758;52.122;5.404;2022-12-29T05:14:25;4.47;;;0.40;;
75413;SDS011;64758;52.122;5.404;2022-12-29T05:16:52;7.90;;;0.30;;
75413;SDS011;64758;52.122;5.404;2022-12-29T05:19:19;6.50;;;0.57;;
75413;SDS011;64758;52.122;5.404;2022-12-29T05:21:45;3.53;;;0.25;;
75413;SDS011;64758;52.122;5.404;2022-12-29T05:24:12;5.10;;;0.80;;
75413;SDS011;64758;52.122;5.404;2022-12-29T05:26:38;7.68;;;0.40;;
75413;SDS011;64758;52.122;5.404;2022-12-29T05:29:05;7.83;;;1.30;;
75413;SDS011;64758;52.122;5.404;2022-12-29T05:31:31;5.30;;;0.75;;
75413;SDS011;64758;52.122;5.404;2022-12-29T05:33:59;6.10;;;0.95;;
75413;SDS011;64758;52.122;5.404;2022-12-29T05:36:25;4.15;;;0.35;;
75413;SDS011;64758;52.122;5.404;2022-12-29T05:38:51;3.70;;;0.35;;
75413;SDS011;64758;52.122;5.404;2022-12-29T05:41:18;7.17;;;0.57;;
75413;SDS011;64758;52.122;5.404;2022-12-29T05:43:45;2.88;;;0.25;;
75413;SDS011;64758;52.122;5.404;2022-12-29T05:46:11;3.58;;;0.60;;
75413;SDS011;64758;52.122;5.404;2022-12-29T05:48:38;3.67;;;0.38;;
75413;SDS011;64758;52.122;5.404;2022-12-29T05:51:04;4.50;;;0.90;;
75413;SDS011;64758;52.122;5.404;2022-12-29T05:53:31;10.53;;;0.50;;
75413;SDS011;64758;52.122;5.404;2022-12-29T05:55:58;5.50;;;0.40;;
75413;SDS011;64758;52.122;5.404;2022-12-29T05:58:25;4.38;;;0.47;;
75413;SDS011;64758;52.122;5.404;2022-12-29T06:00:51;2.55;;;0.40;;
75413;SDS011;64758;52.122;5.404;2022-12-29T06:03:18;5.05;;;0.60;;
75413;SDS011;64758;52.122;5.404;2022-12-29T06:05:45;5.40;;;0.40;;
75413;SDS011;64758;52.122;5.404;2022-12-29T06:08:12;5.78;;;0.65;;
75413;SDS011;64758;52.122;5.404;2022-12-29T06:10:39;4.32;;;0.88;;
75413;SDS011;64758;52.122;5.404;2022-12-29T06:13:05;5.13;;;0.50;;
75413;SDS011;64758;52.122;5.404;2022-12-29T06:15:32;8.52;;;0.80;;
75413;SDS011;64758;52.122;5.404;2022-12-29T06:17:59;5.80;;;0.60;;
75413;SDS011;64758;52.122;5.404;2022-12-29T06:20:26;7.10;;;0.40;;
75413;SDS011;64758;52.122;5.404;2022-12-29T06:22:53;4.65;;;0.88;;
75413;SDS011;64758;52.122;5.404;2022-12-29T06:25:19;7.22;;;0.57;;
75413;SDS011;64758;52.122;5.404;2022-12-29T06:27:46;7.18;;;0.60;;
75413;SDS011;64758;52.122;5.404;2022-12-29T06:30:12;2.30;;;0.50;;
75413;SDS011;64758;52.122;5.404;2022-12-29T06:32:39;8.55;;;0.80;;
75413;SDS011;64758;52.122;5.404;2022-12-29T06:35:05;3.40;;;0.50;;
75413;SDS011;64758;52.122;5.404;2022-12-29T06:37:32;6.68;;;0.68;;
75413;SDS011;64758;52.122;5.404;2022-12-29T06:39:59;10.68;;;0.57;;
75413;SDS011;64758;52.122;5.404;2022-12-29T06:42:25;6.93;;;0.73;;
75413;SDS011;64758;52.122;5.404;2022-12-29T06:44:52;5.03;;;0.47;;
75413;SDS011;64758;52.122;5.404;2022-12-29T06:47:19;7.28;;;1.05;;
75413;SDS011;64758;52.122;5.404;2022-12-29T06:49:45;5.20;;;0.63;;
75413;SDS011;64758;52.122;5.404;2022-12-29T06:52:12;7.40;;;0.90;;
75413;SDS011;64758;52.122;5.404;2022-12-29T06:54:39;5.77;;;0.70;;
75413;SDS011;64758;52.122;5.404;2022-12-29T06:57:05;6.38;;;0.55;;
75413;SDS011;64758;52.122;5.404;2022-12-29T06:59:32;5.63;;;0.45;;
75413;SDS011;64758;52.122;5.404;2022-12-29T07:01:59;8.02;;;0.60;;
75413;SDS011;64758;52.122;5.404;2022-12-29T07:04:28;3.00;;;0.30;;
75413;SDS011;64758;52.122;5.404;2022-12-29T07:06:55;2.63;;;0.23;;
75413;SDS011;64758;52.122;5.404;2022-12-29T07:09:21;4.45;;;0.57;;
75413;SDS011;64758;52.122;5.404;2022-12-29T07:11:48;5.47;;;0.65;;
75413;SDS011;64758;52.122;5.404;2022-12-29T07:14:14;3.00;;;0.40;;
75413;SDS011;64758;52.122;5.404;2022-12-29T07:16:41;4.35;;;0.75;;
75413;SDS011;64758;52.122;5.404;2022-12-29T07:19:08;5.83;;;0.40;;
75413;SDS011;64758;52.122;5.404;2022-12-29T07:21:34;4.72;;;0.60;;
75413;SDS011;64758;52.122;5.404;2022-12-29T07:24:01;4.55;;;0.70;;
75413;SDS011;64758;52.122;5.404;2022-12-29T07:26:27;5.72;;;0.70;;
75413;SDS011;64758;52.122;5.404;2022-12-29T07:29:01;4.22;;;0.30;;
75413;SDS011;64758;52.122;5.404;2022-12-29T07:31:30;5.87;;;0.43;;
75413;SDS011;64758;52.122;5.404;2022-12-29T07:33:57;3.88;;;0.85;;
75413;SDS011;64758;52.122;5.404;2022-12-29T07:36:23;5.35;;;0.50;;
75413;SDS011;64758;52.122;5.404;2022-12-29T07:38:57;3.50;;;0.90;;
75413;SDS011;64758;52.122;5.404;2022-12-29T07:41:24;4.97;;;0.50;;
75413;SDS011;64758;52.122;5.404;2022-12-29T07:43:50;5.53;;;0.50;;
75413;SDS011;64758;52.122;5.404;2022-12-29T07:46:17;5.38;;;0.57;;
75413;SDS011;64758;52.122;5.404;2022-12-29T07:49:03;3.97;;;0.50;;
75413;SDS011;64758;52.122;5.404;2022-12-29T07:51:29;5.10;;;0.85;;
75413;SDS011;64758;52.122;5.404;2022-12-29T07:53:57;5.72;;;0.50;;
75413;SDS011;64758;52.122;5.404;2022-12-29T07:56:26;4.67;;;0.40;;
75413;SDS011;64758;52.122;5.404;2022-12-29T07:58:53;5.30;;;0.60;;
75413;SDS011;64758;52.122;5.404;2022-12-29T08:01:19;3.22;;;1.00;;
75413;SDS011;64758;52.122;5.404;2022-12-29T08:03:47;5.60;;;0.60;;
75413;SDS011;64758;52.122;5.404;2022-12-29T08:06:22;6.85;;;0.52;;
75413;SDS011;64758;52.122;5.404;2022-12-29T08:08:49;5.80;;;0.70;;
75413;SDS011;64758;52.122;5.404;2022-12-29T08:11:15;4.63;;;0.50;;
75413;SDS011;64758;52.122;5.404;2022-12-29T08:13:42;5.43;;;0.63;;
75413;SDS011;64758;52.122;5.404;2022-12-29T08:16:08;4.47;;;0.70;;
75413;SDS011;64758;52.122;5.404;2022-12-29T08:18:35;6.18;;;0.52;;
75413;SDS011;64758;52.122;5.404;2022-12-29T08:21:02;6.70;;;0.40;;
75413;SDS011;64758;52.122;5.404;2022-12-29T08:23:29;11.30;;;0.80;;
75413;SDS011;64758;52.122;5.404;2022-12-29T08:25:56;5.38;;;0.90;;
75413;SDS011;64758;52.122;5.404;2022-12-29T08:28:27;7.85;;;0.45;;
75413;SDS011;64758;52.122;5.404;2022-12-29T08:30:57;7.57;;;0.65;;
75413;SDS011;64758;52.122;5.404;2022-12-29T08:33:25;6.67;;;0.53;;
75413;SDS011;64758;52.122;5.404;2022-12-29T08:35:52;3.17;;;0.30;;
75413;SDS011;64758;52.122;5.404;2022-12-29T08:38:18;9.23;;;0.70;;
75413;SDS011;64758;52.122;5.404;2022-12-29T08:40:45;5.13;;;0.47;;
75413;SDS011;64758;52.122;5.404;2022-12-29T08:43:11;5.43;;;0.70;;
75413;SDS011;64758;52.122;5.404;2022-12-29T08:45:42;5.80;;;0.60;;
75413;SDS011;64758;52.122;5.404;2022-12-29T08:48:08;5.57;;;0.40;;
75413;SDS011;64758;52.122;5.404;2022-12-29T08:50:35;4.55;;;0.90;;
75413;SDS011;64758;52.122;5.404;2022-12-29T08:53:01;4.93;;;0.40;;
75413;SDS011;64758;52.122;5.404;2022-12-29T08:55:28;6.25;;;0.75;;
75413;SDS011;64758;52.122;5.404;2022-12-29T08:57:55;7.27;;;1.00;;
75413;SDS011;64758;52.122;5.404;2022-12-29T09:00:21;4.93;;;0.63;;
75413;SDS011;64758;52.122;5.404;2022-12-29T09:02:49;2.88;;;0.57;;
75413;SDS011;64758;52.122;5.404;2022-12-29T09:05:16;3.70;;;0.70;;
75413;SDS011;64758;52.122;5.404;2022-12-29T09:07:43;6.03;;;0.70;;
75413;SDS011;64758;52.122;5.404;2022-12-29T09:10:09;4.57;;;0.40;;
75413;SDS011;64758;52.122;5.404;2022-12-29T09:12:36;5.70;;;0.40;;
75413;SDS011;64758;52.122;5.404;2022-12-29T09:15:03;5.50;;;0.50;;
75413;SDS011;64758;52.122;5.404;2022-12-29T09:17:30;6.95;;;0.60;;
75413;SDS011;64758;52.122;5.404;2022-12-29T09:20:13;9.07;;;0.40;;
75413;SDS011;64758;52.122;5.404;2022-12-29T09:22:44;3.83;;;0.40;;
75413;SDS011;64758;52.122;5.404;2022-12-29T09:25:11;3.75;;;0.40;;
75413;SDS011;64758;52.122;5.404;2022-12-29T09:27:37;5.00;;;0.60;;
75413;SDS011;64758;52.122;5.404;2022-12-29T09:30:05;5.82;;;0.52;;
75413;SDS011;64758;52.122;5.404;2022-12-29T09:32:33;8.85;;;0.70;;
75413;SDS011;64758;52.122;5.404;2022-12-29T09:35:07;5.93;;;0.43;;
75413;SDS011;64758;52.122;5.404;2022-12-29T09:37:33;4.82;;;0.50;;
75413;SDS011;64758;52.122;5.404;2022-12-29T09:40:00;6.55;;;1.00;;
75413;SDS011;64758;52.122;5.404;2022-12-29T09:45:07;5.80;;;0.60;;
75413;SDS011;64758;52.122;5.404;2022-12-29T09:47:35;6.00;;;0.40;;
75413;SDS011;64758;52.122;5.404;2022-12-29T09:50:04;7.05;;;1.02;;
75413;SDS011;64758;52.122;5.404;2022-12-29T09:53:20;5.65;;;0.80;;
75413;SDS011;64758;52.122;5.404;2022-12-29T09:55:44;6.85;;;0.88;;
75413;SDS011;64758;52.122;5.404;2022-12-29T09:58:17;4.78;;;0.75;;
75413;SDS011;64758;52.122;5.404;2022-12-29T10:00:54;7.60;;;0.90;;
75413;SDS011;64758;52.122;5.404;2022-12-29T10:03:24;6.72;;;0.70;;
75413;SDS011;64758;52.122;5.404;2022-12-29T10:17:53;5.25;;;0.70;;
75413;SDS011;64758;52.122;5.404;2022-12-29T10:20:33;6.85;;;1.23;;
75413;SDS011;64758;52.122;5.404;2022-12-29T10:26:02;5.13;;;0.80;;
75413;SDS011;64758;52.122;5.404;2022-12-29T10:31:10;4.72;;;0.95;;
75413;SDS011;64758;52.122;5.404;2022-12-29T10:33:43;4.78;;;0.70;;
75413;SDS011;64758;52.122;5.404;2022-12-29T10:36:14;3.95;;;0.82;;
75413;SDS011;64758;52.122;5.404;2022-12-29T10:38:45;4.03;;;0.82;;
75413;SDS011;64758;52.122;5.404;2022-12-29T10:41:21;5.70;;;1.43;;
75413;SDS011;64758;52.122;5.404;2022-12-29T10:43:58;5.47;;;1.00;;
75413;SDS011;64758;52.122;5.404;2022-12-29T10:46:28;7.13;;;1.20;;
75413;SDS011;64758;52.122;5.404;2022-12-29T10:48:59;8.50;;;1.40;;
75413;SDS011;64758;52.122;5.404;2022-12-29T10:51:26;3.22;;;1.25;;
75413;SDS011;64758;52.122;5.404;2022-12-29T10:54:02;3.57;;;1.00;;
75413;SDS011;64758;52.122;5.404;2022-12-29T10:56:38;8.40;;;1.17;;
75413;SDS011;64758;52.122;5.404;2022-12-29T10:59:29;9.25;;;2.05;;
75413;SDS011;64758;52.122;5.404;2022-12-29T11:07:33;5.70;;;1.00;;
75413;SDS011;64758;52.122;5.404;2022-12-29T11:12:57;7.78;;;1.45;;
75413;SDS011;64758;52.122;5.404;2022-12-29T11:15:38;8.80;;;1.48;;
75413;SDS011;64758;52.122;5.404;2022-12-29T11:18:17;9.98;;;2.00;;
75413;SDS011;64758;52.122;5.404;2022-12-29T11:20:54;13.10;;;2.67;;
75413;SDS011;64758;52.122;5.404;2022-12-29T11:28:42;5.15;;;1.33;;
75413;SDS011;64758;52.122;5.404;2022-12-29T11:31:39;6.93;;;1.10;;
75413;SDS011;64758;52.122;5.404;2022-12-29T11:34:16;5.27;;;1.00;;
75413;SDS011;64758;52.122;5.404;2022-12-29T11:36:44;7.47;;;1.67;;
75413;SDS011;64758;52.122;5.404;2022-12-29T11:41:58;10.00;;;1.55;;
75413;SDS011;64758;52.122;5.404;2022-12-29T11:44:26;6.55;;;1.50;;
75413;SDS011;64758;52.122;5.404;2022-12-29T11:46:53;5.73;;;1.33;;
75413;SDS011;64758;52.122;5.404;2022-12-29T11:49:24;9.48;;;1.20;;
75413;SDS011;64758;52.122;5.404;2022-12-29T11:51:52;8.02;;;1.00;;
75413;SDS011;64758;52.122;5.404;2022-12-29T11:54:25;7.70;;;0.88;;
75413;SDS011;64758;52.122;5.404;2022-12-29T11:57:08;4.22;;;0.98;;
75413;SDS011;64758;52.122;5.404;2022-12-29T11:59:42;9.03;;;1.20;;
75413;SDS011;64758;52.122;5.404;2022-12-29T12:02:25;12.35;;;1.63;;
75413;SDS011;64758;52.122;5.404;2022-12-29T12:05:09;9.77;;;1.58;;
75413;SDS011;64758;52.122;5.404;2022-12-29T12:07:41;7.15;;;2.47;;
75413;SDS011;64758;52.122;5.404;2022-12-29T12:10:21;9.30;;;1.25;;
75413;SDS011;64758;52.122;5.404;2022-12-29T12:12:56;14.13;;;1.50;;
75413;SDS011;64758;52.122;5.404;2022-12-29T12:15:36;10.32;;;1.70;;
75413;SDS011;64758;52.122;5.404;2022-12-29T12:18:18;11.52;;;1.48;;
75413;SDS011;64758;52.122;5.404;2022-12-29T12:20:52;18.13;;;2.80;;
75413;SDS011;64758;52.122;5.404;2022-12-29T12:23:36;12.35;;;2.15;;
75413;SDS011;64758;52.122;5.404;2022-12-29T12:26:17;11.67;;;1.70;;
75413;SDS011;64758;52.122;5.404;2022-12-29T12:28:54;13.73;;;2.33;;
75413;SDS011;64758;52.122;5.404;2022-12-29T12:31:36;19.52;;;2.05;;
75413;SDS011;64758;52.122;5.404;2022-12-29T12:34:28;14.38;;;1.65;;
75413;SDS011;64758;52.122;5.404;2022-12-29T12:42:27;9.60;;;2.13;;
75413;SDS011;64758;52.122;5.404;2022-12-29T12:53:29;8.83;;;1.57;;
75413;SDS011;64758;52.122;5.404;2022-12-29T12:56:37;8.30;;;1.17;;
75413;SDS011;64758;52.122;5.404;2022-12-29T12:59:17;8.07;;;1.85;;
75413;SDS011;64758;52.122;5.404;2022-12-29T13:02:09;7.97;;;2.00;;
75413;SDS011;64758;52.122;5.404;2022-12-29T13:05:04;4.97;;;1.50;;
75413;SDS011;64758;52.122;5.404;2022-12-29T13:07:44;9.83;;;1.80;;
75413;SDS011;64758;52.122;5.404;2022-12-29T13:18:27;6.47;;;1.90;;
75413;SDS011;64758;52.122;5.404;2022-12-29T13:21:06;11.83;;;2.17;;
75413;SDS011;64758;52.122;5.404;2022-12-29T13:31:52;10.27;;;1.50;;
75413;SDS011;64758;52.122;5.404;2022-12-29T13:37:04;9.27;;;1.27;;
75413;SDS011;64758;52.122;5.404;2022-12-29T13:39:39;11.00;;;1.30;;
75413;SDS011;64758;52.122;5.404;2022-12-29T13:42:09;13.95;;;1.48;;
75413;SDS011;64758;52.122;5.404;2022-12-29T13:44:59;7.13;;;1.40;;
75413;SDS011;64758;52.122;5.404;2022-12-29T13:47:36;9.73;;;1.77;;
75413;SDS011;64758;52.122;5.404;2022-12-29T13:50:12;7.50;;;1.80;;
75413;SDS011;64758;52.122;5.404;2022-12-29T13:55:37;5.45;;;1.25;;
75413;SDS011;64758;52.122;5.404;2022-12-29T13:58:19;8.90;;;1.45;;
75413;SDS011;64758;52.122;5.404;2022-12-29T14:00:58;8.40;;;1.37;;
75413;SDS011;64758;52.122;5.404;2022-12-29T14:08:56;13.48;;;1.00;;
75413;SDS011;64758;52.122;5.404;2022-12-29T14:11:30;9.32;;;1.17;;
75413;SDS011;64758;52.122;5.404;2022-12-29T14:13:59;7.57;;;1.00;;
75413;SDS011;64758;52.122;5.404;2022-12-29T14:16:43;7.40;;;0.95;;
75413;SDS011;64758;52.122;5.404;2022-12-29T14:19:16;9.10;;;0.80;;
75413;SDS011;64758;52.122;5.404;2022-12-29T14:21:53;3.95;;;0.88;;
75413;SDS011;64758;52.122;5.404;2022-12-29T14:24:41;4.05;;;0.50;;
75413;SDS011;64758;52.122;5.404;2022-12-29T14:34:57;2.47;;;0.40;;
75413;SDS011;64758;52.122;5.404;2022-12-29T14:42:41;5.60;;;0.70;;
75413;SDS011;64758;52.122;5.404;2022-12-29T14:47:41;3.17;;;0.30;;
75413;SDS011;64758;52.122;5.404;2022-12-29T14:58:05;4.72;;;0.75;;
75413;SDS011;64758;52.122;5.404;2022-12-29T15:00:40;4.50;;;0.63;;
75413;SDS011;64758;52.122;5.404;2022-12-29T15:03:12;4.75;;;0.73;;
75413;SDS011;64758;52.122;5.404;2022-12-29T15:08:12;3.70;;;0.82;;
75413;SDS011;64758;52.122;5.404;2022-12-29T15:10:45;1.45;;;0.45;;
75413;SDS011;64758;52.122;5.404;2022-12-29T15:13:20;3.38;;;1.52;;
75413;SDS011;64758;52.122;5.404;2022-12-29T15:15:49;6.32;;;1.02;;
75413;SDS011;64758;52.122;5.404;2022-12-29T15:18:26;5.83;;;0.60;;
75413;SDS011;64758;52.122;5.404;2022-12-29T15:20:58;5.70;;;2.10;;
75413;SDS011;64758;52.122;5.404;2022-12-29T15:23:27;5.95;;;1.25;;
75413;SDS011;64758;52.122;5.404;2022-12-29T15:28:27;3.65;;;1.30;;
75413;SDS011;64758;52.122;5.404;2022-12-29T15:31:20;4.97;;;0.90;;
75413;SDS011;64758;52.122;5.404;2022-12-29T15:34:02;7.10;;;1.33;;
75413;SDS011;64758;52.122;5.404;2022-12-29T15:36:37;3.65;;;1.15;;
75413;SDS011;64758;52.122;5.404;2022-12-29T15:39:26;3.95;;;1.50;;
75413;SDS011;64758;52.122;5.404;2022-12-29T15:44:47;7.33;;;1.83;;
75413;SDS011;64758;52.122;5.404;2022-12-29T15:47:24;11.38;;;0.65;;
75413;SDS011;64758;52.122;5.404;2022-12-29T15:50:07;5.68;;;1.48;;
75413;SDS011;64758;52.122;5.404;2022-12-29T15:52:49;4.32;;;0.68;;
75413;SDS011;64758;52.122;5.404;2022-12-29T15:55:18;6.57;;;0.75;;
75413;SDS011;64758;52.122;5.404;2022-12-29T15:57:48;5.63;;;1.63;;
75413;SDS011;64758;52.122;5.404;2022-12-29T16:00:21;5.13;;;0.90;;
75413;SDS011;64758;52.122;5.404;2022-12-29T16:02:52;7.93;;;0.85;;
75413;SDS011;64758;52.122;5.404;2022-12-29T16:05:21;4.22;;;0.70;;
75413;SDS011;64758;52.122;5.404;2022-12-29T16:07:51;4.55;;;0.90;;
75413;SDS011;64758;52.122;5.404;2022-12-29T16:10:25;2.47;;;0.60;;
75413;SDS011;64758;52.122;5.404;2022-12-29T16:13:42;3.78;;;0.60;;
75413;SDS011;64758;52.122;5.404;2022-12-29T16:15:58;8.05;;;1.65;;
75413;SDS011;64758;52.122;5.404;2022-12-29T16:18:29;3.25;;;0.70;;
75413;SDS011;64758;52.122;5.404;2022-12-29T16:21:01;5.13;;;1.02;;
75413;SDS011;64758;52.122;5.404;2022-12-29T16:23:30;8.60;;;0.90;;
75413;SDS011;64758;52.122;5.404;2022-12-29T16:25:58;4.82;;;0.73;;
75413;SDS011;64758;52.122;5.404;2022-12-29T16:28:35;5.57;;;1.15;;
75413;SDS011;64758;52.122;5.404;2022-12-29T16:31:24;6.88;;;0.90;;
75413;SDS011;64758;52.122;5.404;2022-12-29T16:33:58;5.25;;;0.80;;
75413;SDS011;64758;52.122;5.404;2022-12-29T16:36:40;3.90;;;0.60;;
75413;SDS011;64758;52.122;5.404;2022-12-29T16:41:52;4.78;;;0.70;;
75413;SDS011;64758;52.122;5.404;2022-12-29T16:44:20;2.97;;;0.50;;
75413;SDS011;64758;52.122;5.404;2022-12-29T16:47:03;4.80;;;0.90;;
75413;SDS011;64758;52.122;5.404;2022-12-29T16:49:38;5.90;;;0.50;;
75413;SDS011;64758;52.122;5.404;2022-12-29T16:52:13;4.18;;;0.55;;
75413;SDS011;64758;52.122;5.404;2022-12-29T16:54:40;4.35;;;1.17;;
75413;SDS011;64758;52.122;5.404;2022-12-29T16:57:07;2.25;;;0.43;;
75413;SDS011;64758;52.122;5.404;2022-12-29T16:59:35;6.40;;;0.80;;
75413;SDS011;64758;52.122;5.404;2022-12-29T17:02:07;6.10;;;1.70;;
75413;SDS011;64758;52.122;5.404;2022-12-29T17:04:41;6.75;;;1.83;;
75413;SDS011;64758;52.122;5.404;2022-12-29T17:07:15;9.07;;;1.42;;
75413;SDS011;64758;52.122;5.404;2022-12-29T17:09:43;5.25;;;0.80;;
75413;SDS011;64758;52.122;5.404;2022-12-29T17:12:12;6.07;;;0.52;;
75413;SDS011;64758;52.122;5.404;2022-12-29T17:17:19;4.55;;;0.40;;
75413;SDS011;64758;52.122;5.404;2022-12-29T17:19:57;3.25;;;0.50;;
75413;SDS011;64758;52.122;5.404;2022-12-29T17:22:29;4.30;;;0.40;;
75413;SDS011;64758;52.122;5.404;2022-12-29T17:24:57;5.28;;;0.80;;
75413;SDS011;64758;52.122;5.404;2022-12-29T17:27:33;7.33;;;0.50;;
75413;SDS011;64758;52.122;5.404;2022-12-29T17:30:13;3.72;;;0.50;;
75413;SDS011;64758;52.122;5.404;2022-12-29T17:32:43;3.80;;;0.60;;
75413;SDS011;64758;52.122;5.404;2022-12-29T17:35:15;8.75;;;0.80;;
75413;SDS011;64758;52.122;5.404;2022-12-29T17:37:42;5.80;;;0.73;;
75413;SDS011;64758;52.122;5.404;2022-12-29T17:40:12;6.67;;;0.63;;
75413;SDS011;64758;52.122;5.404;2022-12-29T17:42:48;4.70;;;0.68;;
75413;SDS011;64758;52.122;5.404;2022-12-29T17:45:26;9.20;;;1.40;;
75413;SDS011;64758;52.122;5.404;2022-12-29T17:47:54;7.40;;;0.50;;